sensor_id;sensor_type;location;lat;lon;timestamp;pressure;altitude;pressure_sealevel;temperature;humidity
84770;BME280;75001;51.082;17.008;2024-02-23T00:07:53;99384.66;;;12.86;63.04
84770;BME280;75001;51.082;17.008;2024-02-23T00:18:04;99385.54;;;12.93;63.00
84770;BME280;75001;51.082;17.008;2024-02-23T00:28:13;99389.02;;;13.15;62.32
84770;BME280;75001;51.082;17.008;2024-02-23T00:38:23;99400.20;;;13.27;61.93
84770;BME280;75001;51.082;17.008;2024-02-23T00:48:33;99418.70;;;13.38;61.77
84770;BME280;75001;51.082;17.008;2024-02-23T00:58:43;99402.54;;;13.30;61.91
84770;BME280;75001;51.082;17.008;2024-02-23T01:08:54;99387.65;;;13.26;62.12
84770;BME280;75001;51.082;17.008;2024-02-23T01:19:04;99373.07;;;13.12;62.12
84770;BME280;75001;51.082;17.008;2024-02-23T01:29:14;99387.34;;;13.14;61.98
84770;BME280;75001;51.082;17.008;2024-02-23T01:39:24;99380.45;;;13.18;61.92
84770;BME280;75001;51.082;17.008;2024-02-23T01:49:34;99361.16;;;13.13;61.88
84770;BME280;75001;51.082;17.008;2024-02-23T01:59:44;99342.06;;;13.06;61.94
84770;BME280;75001;51.082;17.008;2024-02-23T02:09:54;99325.24;;;12.96;61.95
84770;BME280;75001;51.082;17.008;2024-02-23T02:20:05;99382.84;;;13.00;61.52
84770;BME280;75001;51.082;17.008;2024-02-23T02:30:14;99384.50;;;12.94;61.32
84770;BME280;75001;51.082;17.008;2024-02-23T02:40:24;99397.66;;;12.91;61.25
84770;BME280;75001;51.082;17.008;2024-02-23T02:50:34;99394.70;;;12.85;61.14
84770;BME280;75001;51.082;17.008;2024-02-23T03:00:44;99398.47;;;12.84;61.00
84770;BME280;75001;51.082;17.008;2024-02-23T03:10:54;99420.66;;;12.88;60.89
84770;BME280;75001;51.082;17.008;2024-02-23T03:21:04;99403.75;;;12.93;60.78
84770;BME280;75001;51.082;17.008;2024-02-23T03:31:14;99431.35;;;12.90;60.86
84770;BME280;75001;51.082;17.008;2024-02-23T03:41:24;99489.97;;;12.92;60.94
84770;BME280;75001;51.082;17.008;2024-02-23T03:51:35;99510.07;;;12.91;61.05
84770;BME280;75001;51.082;17.008;2024-02-23T04:01:44;99532.95;;;12.97;61.05
84770;BME280;75001;51.082;17.008;2024-02-23T04:11:54;99549.42;;;12.89;61.19
84770;BME280;75001;51.082;17.008;2024-02-23T04:22:06;99553.98;;;12.88;61.18
84770;BME280;75001;51.082;17.008;2024-02-23T04:32:14;99552.56;;;12.92;60.84
84770;BME280;75001;51.082;17.008;2024-02-23T04:42:24;99558.66;;;12.94;60.67
84770;BME280;75001;51.082;17.008;2024-02-23T04:52:34;99575.21;;;12.93;60.66
84770;BME280;75001;51.082;17.008;2024-02-23T05:02:45;99590.95;;;12.97;60.50
84770;BME280;75001;51.082;17.008;2024-02-23T05:12:54;99617.75;;;13.00;60.41
84770;BME280;75001;51.082;17.008;2024-02-23T05:23:04;99620.93;;;13.04;60.44
84770;BME280;75001;51.082;17.008;2024-02-23T05:33:14;99661.12;;;13.02;60.27
84770;BME280;75001;51.082;17.008;2024-02-23T05:43:24;99676.88;;;13.06;60.33
84770;BME280;75001;51.082;17.008;2024-02-23T05:53:34;99695.80;;;13.15;60.25
84770;BME280;75001;51.082;17.008;2024-02-23T06:03:45;99711.95;;;13.16;60.08
84770;BME280;75001;51.082;17.008;2024-02-23T06:13:54;99731.20;;;13.15;59.62
84770;BME280;75001;51.082;17.008;2024-02-23T06:24:05;99749.41;;;13.14;59.16
84770;BME280;75001;51.082;17.008;2024-02-23T06:34:15;99769.23;;;13.08;58.69
84770;BME280;75001;51.082;17.008;2024-02-23T06:44:24;99780.01;;;13.16;58.23
84770;BME280;75001;51.082;17.008;2024-02-23T06:54:34;99797.77;;;13.27;57.40
84770;BME280;75001;51.082;17.008;2024-02-23T07:04:44;99799.65;;;13.26;56.57
84770;BME280;75001;51.082;17.008;2024-02-23T07:14:55;99830.12;;;13.36;56.39
84770;BME280;75001;51.082;17.008;2024-02-23T07:25:05;99829.38;;;13.43;55.98
84770;BME280;75001;51.082;17.008;2024-02-23T07:35:15;99839.17;;;13.37;55.79
84770;BME280;75001;51.082;17.008;2024-02-23T07:45:24;99842.88;;;13.51;55.43
84770;BME280;75001;51.082;17.008;2024-02-23T07:55:35;99865.51;;;13.51;55.10
84770;BME280;75001;51.082;17.008;2024-02-23T08:05:45;99874.98;;;13.55;54.73
84770;BME280;75001;51.082;17.008;2024-02-23T08:15:55;99914.75;;;13.86;54.30
84770;BME280;75001;51.082;17.008;2024-02-23T08:26:06;99914.97;;;14.06;53.68
84770;BME280;75001;51.082;17.008;2024-02-23T08:36:15;99919.50;;;14.20;53.32
84770;BME280;75001;51.082;17.008;2024-02-23T08:46:26;99975.09;;;14.19;51.41
84770;BME280;75001;51.082;17.008;2024-02-23T08:56:41;99988.41;;;13.93;47.75
84770;BME280;75001;51.082;17.008;2024-02-23T09:06:45;100008.91;;;13.89;48.06
84770;BME280;75001;51.082;17.008;2024-02-23T09:16:56;100021.48;;;14.04;47.72
84770;BME280;75001;51.082;17.008;2024-02-23T09:27:08;100037.88;;;14.26;47.33
84770;BME280;75001;51.082;17.008;2024-02-23T09:37:18;100043.40;;;13.96;47.39
84770;BME280;75001;51.082;17.008;2024-02-23T09:47:29;100051.30;;;14.06;46.72
84770;BME280;75001;51.082;17.008;2024-02-23T09:57:40;100069.03;;;14.17;46.49
84770;BME280;75001;51.082;17.008;2024-02-23T10:07:48;100083.41;;;14.25;46.16
84770;BME280;75001;51.082;17.008;2024-02-23T10:17:58;100100.59;;;14.41;45.91
84770;BME280;75001;51.082;17.008;2024-02-23T10:28:08;100116.70;;;14.35;44.61
84770;BME280;75001;51.082;17.008;2024-02-23T10:38:18;100133.01;;;14.14;46.03
84770;BME280;75001;51.082;17.008;2024-02-23T10:48:29;100130.61;;;14.26;45.65
84770;BME280;75001;51.082;17.008;2024-02-23T10:58:38;100131.48;;;14.26;45.84
84770;BME280;75001;51.082;17.008;2024-02-23T11:08:48;100132.09;;;14.58;46.04
84770;BME280;75001;51.082;17.008;2024-02-23T11:19:04;100128.87;;;14.69;45.28
84770;BME280;75001;51.082;17.008;2024-02-23T11:29:12;100114.32;;;15.05;44.80
84770;BME280;75001;51.082;17.008;2024-02-23T11:39:19;100093.52;;;15.04;44.96
84770;BME280;75001;51.082;17.008;2024-02-23T11:49:29;100099.89;;;15.11;44.71
84770;BME280;75001;51.082;17.008;2024-02-23T11:59:40;100126.09;;;15.05;44.36
84770;BME280;75001;51.082;17.008;2024-02-23T12:09:48;100143.65;;;14.75;44.22
84770;BME280;75001;51.082;17.008;2024-02-23T12:20:02;100175.32;;;14.54;45.19
84770;BME280;75001;51.082;17.008;2024-02-23T12:30:15;100190.52;;;14.34;45.35
84770;BME280;75001;51.082;17.008;2024-02-23T12:40:18;100171.52;;;14.26;45.47
84770;BME280;75001;51.082;17.008;2024-02-23T12:50:31;100182.26;;;14.13;45.73
84770;BME280;75001;51.082;17.008;2024-02-23T13:00:38;100189.61;;;14.27;45.72
84770;BME280;75001;51.082;17.008;2024-02-23T13:10:50;100196.37;;;14.16;46.65
84770;BME280;75001;51.082;17.008;2024-02-23T13:20:58;100190.90;;;14.01;48.83
84770;BME280;75001;51.082;17.008;2024-02-23T13:31:08;100199.26;;;13.85;49.59
84770;BME280;75001;51.082;17.008;2024-02-23T13:41:18;100209.45;;;13.53;50.19
84770;BME280;75001;51.082;17.008;2024-02-23T13:51:28;100199.42;;;13.31;50.66
84770;BME280;75001;51.082;17.008;2024-02-23T14:01:38;100199.34;;;13.39;50.75
84770;BME280;75001;51.082;17.008;2024-02-23T14:11:48;100211.86;;;13.48;50.71
84770;BME280;75001;51.082;17.008;2024-02-23T14:21:58;100216.68;;;13.61;50.49
84770;BME280;75001;51.082;17.008;2024-02-23T14:32:15;100213.09;;;13.46;50.39
84770;BME280;75001;51.082;17.008;2024-02-23T14:42:18;100224.71;;;13.40;50.05
84770;BME280;75001;51.082;17.008;2024-02-23T14:52:29;100239.72;;;13.35;49.81
84770;BME280;75001;51.082;17.008;2024-02-23T15:02:39;100270.49;;;13.13;49.73
84770;BME280;75001;51.082;17.008;2024-02-23T15:12:49;100275.40;;;13.18;49.44
84770;BME280;75001;51.082;17.008;2024-02-23T15:22:59;100266.10;;;13.04;49.36
84770;BME280;75001;51.082;17.008;2024-02-23T15:33:09;100245.69;;;12.77;49.48
84770;BME280;75001;51.082;17.008;2024-02-23T15:43:19;100246.45;;;12.54;49.95
84770;BME280;75001;51.082;17.008;2024-02-23T15:53:29;100242.16;;;12.21;50.64
84770;BME280;75001;51.082;17.008;2024-02-23T16:03:39;100242.17;;;12.12;51.42
84770;BME280;75001;51.082;17.008;2024-02-23T16:13:49;100254.58;;;12.07;51.81
84770;BME280;75001;51.082;17.008;2024-02-23T16:23:59;100284.02;;;11.87;52.56
84770;BME280;75001;51.082;17.008;2024-02-23T16:34:09;100297.60;;;11.87;53.07
84770;BME280;75001;51.082;17.008;2024-02-23T16:44:19;100295.05;;;11.85;53.46
84770;BME280;75001;51.082;17.008;2024-02-23T16:54:32;100306.21;;;11.82;53.69
84770;BME280;75001;51.082;17.008;2024-02-23T17:04:39;100292.98;;;11.71;54.07
84770;BME280;75001;51.082;17.008;2024-02-23T17:14:50;100299.41;;;11.54;54.28
84770;BME280;75001;51.082;17.008;2024-02-23T17:25:06;100300.43;;;11.53;54.42
84770;BME280;75001;51.082;17.008;2024-02-23T17:35:10;100306.88;;;11.44;54.75
84770;BME280;75001;51.082;17.008;2024-02-23T17:45:23;100291.76;;;11.41;54.93
84770;BME280;75001;51.082;17.008;2024-02-23T17:55:30;100289.88;;;11.42;55.19
84770;BME280;75001;51.082;17.008;2024-02-23T18:05:40;100300.19;;;11.13;56.06
84770;BME280;75001;51.082;17.008;2024-02-23T18:15:50;100298.65;;;11.03;56.56
84770;BME280;75001;51.082;17.008;2024-02-23T18:26:00;100298.48;;;11.04;56.78
84770;BME280;75001;51.082;17.008;2024-02-23T18:36:09;100290.02;;;11.07;57.02
84770;BME280;75001;51.082;17.008;2024-02-23T18:46:27;100300.91;;;11.24;56.98
84770;BME280;75001;51.082;17.008;2024-02-23T18:56:35;100302.80;;;11.31;57.12
84770;BME280;75001;51.082;17.008;2024-02-23T19:06:39;100300.41;;;11.36;57.19
84770;BME280;75001;51.082;17.008;2024-02-23T19:16:49;100306.19;;;11.42;57.90
84770;BME280;75001;51.082;17.008;2024-02-23T19:26:59;100288.03;;;11.42;58.50
84770;BME280;75001;51.082;17.008;2024-02-23T19:37:09;100287.70;;;11.45;58.61
84770;BME280;75001;51.082;17.008;2024-02-23T19:47:19;100273.27;;;11.45;58.58
84770;BME280;75001;51.082;17.008;2024-02-23T19:57:29;100269.88;;;11.34;59.00
84770;BME280;75001;51.082;17.008;2024-02-23T20:07:39;100256.96;;;11.28;59.33
84770;BME280;75001;51.082;17.008;2024-02-23T20:17:49;100249.80;;;11.03;60.00
84770;BME280;75001;51.082;17.008;2024-02-23T20:28:00;100246.55;;;10.91;60.39
84770;BME280;75001;51.082;17.008;2024-02-23T20:38:09;100229.42;;;10.91;60.66
84770;BME280;75001;51.082;17.008;2024-02-23T20:48:19;100223.45;;;10.71;61.30
84770;BME280;75001;51.082;17.008;2024-02-23T20:58:29;100230.87;;;10.69;61.64
84770;BME280;75001;51.082;17.008;2024-02-23T21:08:39;100213.63;;;10.78;61.71
84770;BME280;75001;51.082;17.008;2024-02-23T21:18:50;100218.04;;;10.79;61.90
84770;BME280;75001;51.082;17.008;2024-02-23T21:29:00;100201.05;;;10.77;62.08
84770;BME280;75001;51.082;17.008;2024-02-23T21:39:10;100189.07;;;10.37;62.92
84770;BME280;75001;51.082;17.008;2024-02-23T21:49:20;100178.95;;;10.47;63.07
84770;BME280;75001;51.082;17.008;2024-02-23T21:59:30;100175.63;;;10.70;62.91
84770;BME280;75001;51.082;17.008;2024-02-23T22:09:40;100158.36;;;10.79;62.92
84770;BME280;75001;51.082;17.008;2024-02-23T22:19:50;100129.55;;;10.78;63.13
84770;BME280;75001;51.082;17.008;2024-02-23T22:30:00;100130.90;;;10.74;63.22
84770;BME280;75001;51.082;17.008;2024-02-23T22:40:11;100129.88;;;10.91;63.27
84770;BME280;75001;51.082;17.008;2024-02-23T22:50:20;100112.77;;;10.99;63.13
84770;BME280;75001;51.082;17.008;2024-02-23T23:00:30;100106.83;;;10.95;63.19
84770;BME280;75001;51.082;17.008;2024-02-23T23:10:40;100107.66;;;10.87;63.29
84770;BME280;75001;51.082;17.008;2024-02-23T23:27:14;100082.37;;;10.46;63.67
84770;BME280;75001;51.082;17.008;2024-02-23T23:37:24;100060.52;;;10.64;63.55
84770;BME280;75001;51.082;17.008;2024-02-23T23:47:34;100043.23;;;10.73;63.70
84770;BME280;75001;51.082;17.008;2024-02-23T23:57:44;100026.46;;;10.78;63.71
